sensor_id;sensor_type;location;lat;lon;timestamp;temperature;humidity
48998;DHT22;34807;51.456;7.244;2022-12-16T00:00:27;-2.20;92.30
48998;DHT22;34807;51.456;7.244;2022-12-16T00:02:53;-2.20;92.30
48998;DHT22;34807;51.456;7.244;2022-12-16T00:05:18;-2.20;92.30
48998;DHT22;34807;51.456;7.244;2022-12-16T00:07:44;-2.20;92.30
48998;DHT22;34807;51.456;7.244;2022-12-16T00:10:10;-2.30;92.30
48998;DHT22;34807;51.456;7.244;2022-12-16T00:12:36;-2.30;92.20
48998;DHT22;34807;51.456;7.244;2022-12-16T00:15:01;-2.30;92.30
48998;DHT22;34807;51.456;7.244;2022-12-16T00:17:27;-2.30;92.20
48998;DHT22;34807;51.456;7.244;2022-12-16T00:19:52;-2.30;92.20
48998;DHT22;34807;51.456;7.244;2022-12-16T00:22:18;-2.30;92.20
48998;DHT22;34807;51.456;7.244;2022-12-16T00:24:43;-2.30;92.20
48998;DHT22;34807;51.456;7.244;2022-12-16T00:27:09;-2.30;92.20
48998;DHT22;34807;51.456;7.244;2022-12-16T00:29:34;-2.40;92.20
48998;DHT22;34807;51.456;7.244;2022-12-16T00:32:00;-2.30;92.20
48998;DHT22;34807;51.456;7.244;2022-12-16T00:34:27;-2.30;92.20
48998;DHT22;34807;51.456;7.244;2022-12-16T00:36:52;-2.40;92.20
48998;DHT22;34807;51.456;7.244;2022-12-16T00:39:18;-2.40;92.20
48998;DHT22;34807;51.456;7.244;2022-12-16T00:41:43;-2.30;92.20
48998;DHT22;34807;51.456;7.244;2022-12-16T00:44:09;-2.40;92.10
48998;DHT22;34807;51.456;7.244;2022-12-16T00:46:34;-2.40;92.20
48998;DHT22;34807;51.456;7.244;2022-12-16T00:49:00;-2.40;92.10
48998;DHT22;34807;51.456;7.244;2022-12-16T00:51:25;-2.40;92.10
48998;DHT22;34807;51.456;7.244;2022-12-16T00:53:51;-2.40;92.10
48998;DHT22;34807;51.456;7.244;2022-12-16T00:56:16;-2.40;92.00
48998;DHT22;34807;51.456;7.244;2022-12-16T00:58:42;-2.40;92.10
48998;DHT22;34807;51.456;7.244;2022-12-16T01:01:08;-2.40;92.00
48998;DHT22;34807;51.456;7.244;2022-12-16T01:03:34;-2.40;92.00
48998;DHT22;34807;51.456;7.244;2022-12-16T01:05:59;-2.50;92.00
48998;DHT22;34807;51.456;7.244;2022-12-16T01:08:25;-2.50;92.10
48998;DHT22;34807;51.456;7.244;2022-12-16T01:10:51;-2.50;92.00
48998;DHT22;34807;51.456;7.244;2022-12-16T01:13:17;-2.50;92.00
48998;DHT22;34807;51.456;7.244;2022-12-16T01:15:43;-2.50;92.00
48998;DHT22;34807;51.456;7.244;2022-12-16T01:18:08;-2.50;92.00
48998;DHT22;34807;51.456;7.244;2022-12-16T01:20:35;-2.50;92.00
48998;DHT22;34807;51.456;7.244;2022-12-16T01:23:00;-2.50;92.00
48998;DHT22;34807;51.456;7.244;2022-12-16T01:25:26;-2.50;91.90
48998;DHT22;34807;51.456;7.244;2022-12-16T01:27:52;-2.50;92.00
48998;DHT22;34807;51.456;7.244;2022-12-16T01:30:17;-2.50;91.90
48998;DHT22;34807;51.456;7.244;2022-12-16T01:32:42;-2.50;91.90
48998;DHT22;34807;51.456;7.244;2022-12-16T01:35:09;-2.50;91.90
48998;DHT22;34807;51.456;7.244;2022-12-16T01:37:34;-2.50;91.90
48998;DHT22;34807;51.456;7.244;2022-12-16T01:40:00;-2.50;91.90
48998;DHT22;34807;51.456;7.244;2022-12-16T01:42:26;-2.50;91.90
48998;DHT22;34807;51.456;7.244;2022-12-16T01:44:55;-2.60;91.90
48998;DHT22;34807;51.456;7.244;2022-12-16T01:47:28;-2.60;91.80
48998;DHT22;34807;51.456;7.244;2022-12-16T01:52:21;-2.60;91.80
48998;DHT22;34807;51.456;7.244;2022-12-16T01:54:49;-2.60;91.80
48998;DHT22;34807;51.456;7.244;2022-12-16T01:57:23;-2.60;91.80
48998;DHT22;34807;51.456;7.244;2022-12-16T01:59:50;-2.60;91.80
48998;DHT22;34807;51.456;7.244;2022-12-16T02:02:18;-2.60;91.80
48998;DHT22;34807;51.456;7.244;2022-12-16T02:04:44;-2.60;91.80
48998;DHT22;34807;51.456;7.244;2022-12-16T02:07:29;-2.60;91.80
48998;DHT22;34807;51.456;7.244;2022-12-16T02:09:55;-2.60;91.80
48998;DHT22;34807;51.456;7.244;2022-12-16T02:12:26;-2.60;91.80
48998;DHT22;34807;51.456;7.244;2022-12-16T02:22:38;-2.70;91.70
48998;DHT22;34807;51.456;7.244;2022-12-16T02:27:51;-2.70;91.80
48998;DHT22;34807;51.456;7.244;2022-12-16T02:40:32;-2.70;91.70
48998;DHT22;34807;51.456;7.244;2022-12-16T02:43:02;-2.70;91.70
48998;DHT22;34807;51.456;7.244;2022-12-16T02:45:29;-2.70;91.70
48998;DHT22;34807;51.456;7.244;2022-12-16T02:47:55;-2.70;91.60
48998;DHT22;34807;51.456;7.244;2022-12-16T02:50:54;-2.70;91.70
48998;DHT22;34807;51.456;7.244;2022-12-16T02:53:13;-2.70;91.70
48998;DHT22;34807;51.456;7.244;2022-12-16T02:58:34;-2.70;91.70
48998;DHT22;34807;51.456;7.244;2022-12-16T03:03:31;-2.80;91.60
48998;DHT22;34807;51.456;7.244;2022-12-16T03:06:00;-2.80;91.60
48998;DHT22;34807;51.456;7.244;2022-12-16T03:08:30;-2.80;91.60
48998;DHT22;34807;51.456;7.244;2022-12-16T03:10:59;-2.80;91.70
48998;DHT22;34807;51.456;7.244;2022-12-16T03:13:26;-2.80;91.60
48998;DHT22;34807;51.456;7.244;2022-12-16T03:15:53;-2.80;91.60
48998;DHT22;34807;51.456;7.244;2022-12-16T03:18:19;-2.80;91.60
48998;DHT22;34807;51.456;7.244;2022-12-16T03:20:46;-2.80;91.60
48998;DHT22;34807;51.456;7.244;2022-12-16T03:23:16;-2.80;91.60
48998;DHT22;34807;51.456;7.244;2022-12-16T03:25:44;-2.80;91.60
48998;DHT22;34807;51.456;7.244;2022-12-16T03:28:59;-2.80;91.60
48998;DHT22;34807;51.456;7.244;2022-12-16T03:31:00;-2.80;91.60
48998;DHT22;34807;51.456;7.244;2022-12-16T03:33:32;-2.80;91.60
48998;DHT22;34807;51.456;7.244;2022-12-16T03:35:59;-2.80;91.50
48998;DHT22;34807;51.456;7.244;2022-12-16T03:38:26;-2.80;91.60
48998;DHT22;34807;51.456;7.244;2022-12-16T03:40:52;-2.80;91.50
48998;DHT22;34807;51.456;7.244;2022-12-16T03:43:18;-2.90;91.50
48998;DHT22;34807;51.456;7.244;2022-12-16T03:45:43;-2.90;91.50
48998;DHT22;34807;51.456;7.244;2022-12-16T03:48:12;-2.90;91.50
48998;DHT22;34807;51.456;7.244;2022-12-16T03:50:38;-2.90;91.50
48998;DHT22;34807;51.456;7.244;2022-12-16T03:53:05;-2.90;91.50
48998;DHT22;34807;51.456;7.244;2022-12-16T03:55:31;-2.90;91.50
48998;DHT22;34807;51.456;7.244;2022-12-16T03:57:56;-2.90;91.50
48998;DHT22;34807;51.456;7.244;2022-12-16T04:00:22;-2.90;91.50
48998;DHT22;34807;51.456;7.244;2022-12-16T04:02:48;-2.90;91.50
48998;DHT22;34807;51.456;7.244;2022-12-16T04:05:14;-2.90;91.40
48998;DHT22;34807;51.456;7.244;2022-12-16T04:07:40;-2.90;91.50
48998;DHT22;34807;51.456;7.244;2022-12-16T04:10:05;-2.90;91.50
48998;DHT22;34807;51.456;7.244;2022-12-16T04:12:31;-2.90;91.50
48998;DHT22;34807;51.456;7.244;2022-12-16T04:15:15;-2.90;91.50
48998;DHT22;34807;51.456;7.244;2022-12-16T04:17:59;-2.90;91.50
48998;DHT22;34807;51.456;7.244;2022-12-16T04:20:45;-2.90;91.50
48998;DHT22;34807;51.456;7.244;2022-12-16T04:23:30;-2.90;91.50
48998;DHT22;34807;51.456;7.244;2022-12-16T04:26:16;-2.90;91.50
48998;DHT22;34807;51.456;7.244;2022-12-16T04:28:42;-2.90;91.40
48998;DHT22;34807;51.456;7.244;2022-12-16T04:31:07;-2.90;91.50
48998;DHT22;34807;51.456;7.244;2022-12-16T04:33:33;-3.00;91.50
48998;DHT22;34807;51.456;7.244;2022-12-16T04:36:17;-3.00;91.40
48998;DHT22;34807;51.456;7.244;2022-12-16T04:39:18;-3.00;91.40
48998;DHT22;34807;51.456;7.244;2022-12-16T04:42:02;-3.00;91.40
48998;DHT22;34807;51.456;7.244;2022-12-16T04:44:46;-3.00;91.40
48998;DHT22;34807;51.456;7.244;2022-12-16T04:47:30;-3.00;91.40
48998;DHT22;34807;51.456;7.244;2022-12-16T04:50:15;-3.00;91.40
48998;DHT22;34807;51.456;7.244;2022-12-16T04:52:59;-3.00;91.40
48998;DHT22;34807;51.456;7.244;2022-12-16T04:55:57;-3.00;91.40
48998;DHT22;34807;51.456;7.244;2022-12-16T04:58:41;-3.00;91.40
48998;DHT22;34807;51.456;7.244;2022-12-16T05:01:25;-3.00;91.40
48998;DHT22;34807;51.456;7.244;2022-12-16T05:04:10;-3.00;91.40
48998;DHT22;34807;51.456;7.244;2022-12-16T05:06:54;-3.00;91.40
48998;DHT22;34807;51.456;7.244;2022-12-16T05:09:38;-3.00;91.40
48998;DHT22;34807;51.456;7.244;2022-12-16T05:12:22;-3.00;91.30
48998;DHT22;34807;51.456;7.244;2022-12-16T05:15:07;-3.00;91.30
48998;DHT22;34807;51.456;7.244;2022-12-16T05:17:51;-3.00;91.30
48998;DHT22;34807;51.456;7.244;2022-12-16T05:20:35;-3.10;91.40
48998;DHT22;34807;51.456;7.244;2022-12-16T05:23:19;-3.00;91.40
48998;DHT22;34807;51.456;7.244;2022-12-16T05:26:03;-3.00;91.40
48998;DHT22;34807;51.456;7.244;2022-12-16T05:28:48;-3.00;91.30
48998;DHT22;34807;51.456;7.244;2022-12-16T05:31:32;-3.10;91.30
48998;DHT22;34807;51.456;7.244;2022-12-16T05:34:16;-3.00;91.40
48998;DHT22;34807;51.456;7.244;2022-12-16T05:37:01;-3.10;91.30
48998;DHT22;34807;51.456;7.244;2022-12-16T05:39:45;-3.00;91.40
48998;DHT22;34807;51.456;7.244;2022-12-16T05:42:29;-3.10;91.30
48998;DHT22;34807;51.456;7.244;2022-12-16T05:45:13;-3.10;91.30
48998;DHT22;34807;51.456;7.244;2022-12-16T05:47:58;-3.10;91.30
48998;DHT22;34807;51.456;7.244;2022-12-16T05:50:42;-3.10;91.30
48998;DHT22;34807;51.456;7.244;2022-12-16T05:53:26;-3.10;91.30
48998;DHT22;34807;51.456;7.244;2022-12-16T05:56:10;-3.10;91.30
48998;DHT22;34807;51.456;7.244;2022-12-16T05:58:55;-3.10;91.30
48998;DHT22;34807;51.456;7.244;2022-12-16T06:01:39;-3.10;91.30
48998;DHT22;34807;51.456;7.244;2022-12-16T06:04:23;-3.10;91.30
48998;DHT22;34807;51.456;7.244;2022-12-16T06:07:07;-3.10;91.30
48998;DHT22;34807;51.456;7.244;2022-12-16T06:09:52;-3.10;91.30
48998;DHT22;34807;51.456;7.244;2022-12-16T06:12:36;-3.10;91.30
48998;DHT22;34807;51.456;7.244;2022-12-16T06:15:20;-3.10;91.30
48998;DHT22;34807;51.456;7.244;2022-12-16T06:18:04;-3.10;91.30
48998;DHT22;34807;51.456;7.244;2022-12-16T06:20:48;-3.10;91.30
48998;DHT22;34807;51.456;7.244;2022-12-16T06:23:33;-3.10;91.30
48998;DHT22;34807;51.456;7.244;2022-12-16T06:26:17;-3.10;91.40
48998;DHT22;34807;51.456;7.244;2022-12-16T06:29:01;-3.10;91.40
48998;DHT22;34807;51.456;7.244;2022-12-16T06:31:45;-3.10;91.40
48998;DHT22;34807;51.456;7.244;2022-12-16T06:34:30;-3.10;91.40
48998;DHT22;34807;51.456;7.244;2022-12-16T06:37:14;-3.10;91.30
48998;DHT22;34807;51.456;7.244;2022-12-16T06:39:58;-3.00;91.40
48998;DHT22;34807;51.456;7.244;2022-12-16T06:42:42;-3.10;91.40
48998;DHT22;34807;51.456;7.244;2022-12-16T06:45:26;-3.10;91.40
48998;DHT22;34807;51.456;7.244;2022-12-16T06:48:11;-3.10;91.40
48998;DHT22;34807;51.456;7.244;2022-12-16T06:50:55;-3.10;91.40
48998;DHT22;34807;51.456;7.244;2022-12-16T06:53:39;-3.10;91.40
48998;DHT22;34807;51.456;7.244;2022-12-16T06:56:23;-3.10;91.40
48998;DHT22;34807;51.456;7.244;2022-12-16T06:59:08;-3.10;91.40
48998;DHT22;34807;51.456;7.244;2022-12-16T07:02:07;-3.10;91.40
48998;DHT22;34807;51.456;7.244;2022-12-16T07:04:52;-3.10;91.40
48998;DHT22;34807;51.456;7.244;2022-12-16T07:07:36;-3.10;91.40
48998;DHT22;34807;51.456;7.244;2022-12-16T07:10:20;-3.10;91.30
48998;DHT22;34807;51.456;7.244;2022-12-16T07:13:04;-3.10;91.30
48998;DHT22;34807;51.456;7.244;2022-12-16T07:15:48;-3.10;91.40
48998;DHT22;34807;51.456;7.244;2022-12-16T07:18:33;-3.10;91.30
48998;DHT22;34807;51.456;7.244;2022-12-16T07:21:17;-3.10;91.30
48998;DHT22;34807;51.456;7.244;2022-12-16T07:24:01;-3.10;91.40
48998;DHT22;34807;51.456;7.244;2022-12-16T07:26:45;-3.10;91.30
48998;DHT22;34807;51.456;7.244;2022-12-16T07:29:30;-3.10;91.30
48998;DHT22;34807;51.456;7.244;2022-12-16T07:32:14;-3.10;91.30
48998;DHT22;34807;51.456;7.244;2022-12-16T07:34:58;-3.10;91.30
48998;DHT22;34807;51.456;7.244;2022-12-16T07:37:42;-3.10;91.30
48998;DHT22;34807;51.456;7.244;2022-12-16T07:40:26;-3.10;91.30
48998;DHT22;34807;51.456;7.244;2022-12-16T07:43:11;-3.10;91.30
48998;DHT22;34807;51.456;7.244;2022-12-16T07:45:55;-3.10;91.30
48998;DHT22;34807;51.456;7.244;2022-12-16T07:48:39;-3.10;91.30
48998;DHT22;34807;51.456;7.244;2022-12-16T07:51:23;-3.10;91.30
48998;DHT22;34807;51.456;7.244;2022-12-16T07:54:08;-3.20;91.30
48998;DHT22;34807;51.456;7.244;2022-12-16T07:56:52;-3.10;91.30
48998;DHT22;34807;51.456;7.244;2022-12-16T07:59:36;-3.20;91.30
48998;DHT22;34807;51.456;7.244;2022-12-16T08:02:20;-3.20;91.30
48998;DHT22;34807;51.456;7.244;2022-12-16T08:05:05;-3.10;91.30
48998;DHT22;34807;51.456;7.244;2022-12-16T08:07:49;-3.10;91.30
48998;DHT22;34807;51.456;7.244;2022-12-16T08:10:33;-3.20;91.30
48998;DHT22;34807;51.456;7.244;2022-12-16T08:13:17;-3.10;91.20
48998;DHT22;34807;51.456;7.244;2022-12-16T08:16:01;-3.10;91.20
48998;DHT22;34807;51.456;7.244;2022-12-16T08:18:45;-3.10;91.20
48998;DHT22;34807;51.456;7.244;2022-12-16T08:21:30;-3.10;91.20
48998;DHT22;34807;51.456;7.244;2022-12-16T08:24:14;-3.10;91.20
48998;DHT22;34807;51.456;7.244;2022-12-16T08:26:58;-3.10;91.20
48998;DHT22;34807;51.456;7.244;2022-12-16T08:29:42;-3.10;91.20
48998;DHT22;34807;51.456;7.244;2022-12-16T08:32:27;-3.10;91.20
48998;DHT22;34807;51.456;7.244;2022-12-16T08:35:11;-3.10;91.20
48998;DHT22;34807;51.456;7.244;2022-12-16T08:37:55;-3.10;91.20
48998;DHT22;34807;51.456;7.244;2022-12-16T08:40:43;-3.10;91.20
48998;DHT22;34807;51.456;7.244;2022-12-16T08:43:31;-3.10;91.10
48998;DHT22;34807;51.456;7.244;2022-12-16T08:46:15;-3.10;91.10
48998;DHT22;34807;51.456;7.244;2022-12-16T08:48:59;-3.10;91.10
48998;DHT22;34807;51.456;7.244;2022-12-16T08:51:43;-3.10;91.10
48998;DHT22;34807;51.456;7.244;2022-12-16T08:54:27;-3.10;91.10
48998;DHT22;34807;51.456;7.244;2022-12-16T08:57:12;-3.00;91.10
48998;DHT22;34807;51.456;7.244;2022-12-16T08:59:56;-3.00;91.10
48998;DHT22;34807;51.456;7.244;2022-12-16T09:02:40;-3.00;91.10
48998;DHT22;34807;51.456;7.244;2022-12-16T09:05:24;-3.10;91.10
48998;DHT22;34807;51.456;7.244;2022-12-16T09:08:08;-3.00;91.10
48998;DHT22;34807;51.456;7.244;2022-12-16T09:10:53;-3.00;91.10
48998;DHT22;34807;51.456;7.244;2022-12-16T09:13:37;-3.00;91.10
48998;DHT22;34807;51.456;7.244;2022-12-16T09:16:21;-3.00;91.00
48998;DHT22;34807;51.456;7.244;2022-12-16T09:19:05;-2.90;91.10
48998;DHT22;34807;51.456;7.244;2022-12-16T09:21:50;-2.90;91.10
48998;DHT22;34807;51.456;7.244;2022-12-16T09:24:34;-2.90;91.10
48998;DHT22;34807;51.456;7.244;2022-12-16T09:27:18;-2.80;91.00
48998;DHT22;34807;51.456;7.244;2022-12-16T09:30:03;-2.80;91.00
48998;DHT22;34807;51.456;7.244;2022-12-16T09:32:47;-2.80;91.00
48998;DHT22;34807;51.456;7.244;2022-12-16T09:35:31;-2.70;91.00
48998;DHT22;34807;51.456;7.244;2022-12-16T09:38:15;-2.70;91.00
48998;DHT22;34807;51.456;7.244;2022-12-16T09:41:11;-2.60;91.40
48998;DHT22;34807;51.456;7.244;2022-12-16T09:44:11;-2.60;91.10
48998;DHT22;34807;51.456;7.244;2022-12-16T09:47:00;-2.60;91.00
48998;DHT22;34807;51.456;7.244;2022-12-16T09:49:48;-2.60;91.10
48998;DHT22;34807;51.456;7.244;2022-12-16T09:52:40;-2.60;91.10
48998;DHT22;34807;51.456;7.244;2022-12-16T09:55:31;-2.50;91.10
48998;DHT22;34807;51.456;7.244;2022-12-16T09:58:17;-2.50;91.10
48998;DHT22;34807;51.456;7.244;2022-12-16T10:01:03;-2.50;91.10
48998;DHT22;34807;51.456;7.244;2022-12-16T10:03:47;-2.40;91.20
48998;DHT22;34807;51.456;7.244;2022-12-16T10:06:37;-2.40;91.20
48998;DHT22;34807;51.456;7.244;2022-12-16T10:12:22;-2.40;91.30
48998;DHT22;34807;51.456;7.244;2022-12-16T10:17:56;-2.40;91.20
48998;DHT22;34807;51.456;7.244;2022-12-16T10:20:43;-2.40;91.30
48998;DHT22;34807;51.456;7.244;2022-12-16T10:23:31;-2.30;91.30
48998;DHT22;34807;51.456;7.244;2022-12-16T10:26:48;-2.30;91.30
48998;DHT22;34807;51.456;7.244;2022-12-16T10:29:39;-2.30;91.30
48998;DHT22;34807;51.456;7.244;2022-12-16T10:35:19;-2.30;91.30
48998;DHT22;34807;51.456;7.244;2022-12-16T10:38:05;-2.30;91.30
48998;DHT22;34807;51.456;7.244;2022-12-16T10:40:50;-2.20;91.40
48998;DHT22;34807;51.456;7.244;2022-12-16T10:43:35;-2.20;91.30
48998;DHT22;34807;51.456;7.244;2022-12-16T10:46:21;-2.20;91.30
48998;DHT22;34807;51.456;7.244;2022-12-16T10:49:10;-2.20;91.30
48998;DHT22;34807;51.456;7.244;2022-12-16T10:51:56;-2.10;91.40
48998;DHT22;34807;51.456;7.244;2022-12-16T11:00:47;-2.10;91.30
48998;DHT22;34807;51.456;7.244;2022-12-16T11:03:33;-2.00;91.30
48998;DHT22;34807;51.456;7.244;2022-12-16T11:18:15;-2.00;91.30
48998;DHT22;34807;51.456;7.244;2022-12-16T11:21:03;-1.90;91.30
48998;DHT22;34807;51.456;7.244;2022-12-16T11:23:57;-1.90;91.30
48998;DHT22;34807;51.456;7.244;2022-12-16T11:26:54;-1.90;91.30
48998;DHT22;34807;51.456;7.244;2022-12-16T11:33:43;-1.90;91.30
48998;DHT22;34807;51.456;7.244;2022-12-16T11:36:18;-1.80;91.30
48998;DHT22;34807;51.456;7.244;2022-12-16T11:39:03;-1.80;91.30
48998;DHT22;34807;51.456;7.244;2022-12-16T11:41:48;-1.80;91.30
48998;DHT22;34807;51.456;7.244;2022-12-16T11:44:35;-1.80;91.30
48998;DHT22;34807;51.456;7.244;2022-12-16T11:47:41;-1.80;91.30
48998;DHT22;34807;51.456;7.244;2022-12-16T11:50:29;-1.70;91.20
48998;DHT22;34807;51.456;7.244;2022-12-16T11:56:22;-1.70;91.20
48998;DHT22;34807;51.456;7.244;2022-12-16T11:59:11;-1.60;91.20
48998;DHT22;34807;51.456;7.244;2022-12-16T12:01:58;-1.60;91.20
48998;DHT22;34807;51.456;7.244;2022-12-16T12:04:43;-1.60;91.20
48998;DHT22;34807;51.456;7.244;2022-12-16T12:08:17;-1.60;91.20
48998;DHT22;34807;51.456;7.244;2022-12-16T12:19:15;-1.50;91.20
48998;DHT22;34807;51.456;7.244;2022-12-16T12:22:09;-1.50;91.20
48998;DHT22;34807;51.456;7.244;2022-12-16T12:27:53;-1.50;91.10
48998;DHT22;34807;51.456;7.244;2022-12-16T12:33:54;-1.50;91.20
48998;DHT22;34807;51.456;7.244;2022-12-16T12:39:45;-1.40;91.10
48998;DHT22;34807;51.456;7.244;2022-12-16T12:45:31;-1.40;91.10
48998;DHT22;34807;51.456;7.244;2022-12-16T12:51:24;-1.40;91.10
48998;DHT22;34807;51.456;7.244;2022-12-16T12:54:13;-1.30;91.10
48998;DHT22;34807;51.456;7.244;2022-12-16T12:57:00;-1.30;91.10
48998;DHT22;34807;51.456;7.244;2022-12-16T13:02:33;-1.30;91.10
48998;DHT22;34807;51.456;7.244;2022-12-16T13:05:23;-1.30;91.20
48998;DHT22;34807;51.456;7.244;2022-12-16T13:11:12;-1.30;91.30
48998;DHT22;34807;51.456;7.244;2022-12-16T13:13:57;-1.20;91.20
48998;DHT22;34807;51.456;7.244;2022-12-16T13:25:25;-1.20;91.20
48998;DHT22;34807;51.456;7.244;2022-12-16T13:28:21;-1.20;91.20
48998;DHT22;34807;51.456;7.244;2022-12-16T13:31:06;-1.20;91.20
48998;DHT22;34807;51.456;7.244;2022-12-16T13:33:50;-1.20;91.20
48998;DHT22;34807;51.456;7.244;2022-12-16T13:36:35;-1.20;91.20
48998;DHT22;34807;51.456;7.244;2022-12-16T13:42:03;-1.10;91.30
48998;DHT22;34807;51.456;7.244;2022-12-16T13:53:19;-1.10;91.30
48998;DHT22;34807;51.456;7.244;2022-12-16T13:56:05;-1.10;91.30
48998;DHT22;34807;51.456;7.244;2022-12-16T13:58:49;-1.10;91.30
48998;DHT22;34807;51.456;7.244;2022-12-16T14:01:57;-1.10;91.30
48998;DHT22;34807;51.456;7.244;2022-12-16T14:04:45;-1.10;91.30
48998;DHT22;34807;51.456;7.244;2022-12-16T14:07:30;-1.10;91.30
48998;DHT22;34807;51.456;7.244;2022-12-16T14:16:18;-1.10;91.30
48998;DHT22;34807;51.456;7.244;2022-12-16T14:21:59;-1.00;91.30
48998;DHT22;34807;51.456;7.244;2022-12-16T14:24:47;-1.10;91.30
48998;DHT22;34807;51.456;7.244;2022-12-16T14:27:31;-1.10;91.30
48998;DHT22;34807;51.456;7.244;2022-12-16T14:30:23;-1.10;91.40
48998;DHT22;34807;51.456;7.244;2022-12-16T14:33:22;-1.10;91.40
48998;DHT22;34807;51.456;7.244;2022-12-16T14:36:26;-1.10;91.40
48998;DHT22;34807;51.456;7.244;2022-12-16T14:39:21;-1.10;91.40
48998;DHT22;34807;51.456;7.244;2022-12-16T14:42:17;-1.10;91.40
48998;DHT22;34807;51.456;7.244;2022-12-16T14:45:02;-1.10;91.50
48998;DHT22;34807;51.456;7.244;2022-12-16T14:47:46;-1.10;91.50
48998;DHT22;34807;51.456;7.244;2022-12-16T14:50:30;-1.10;91.50
48998;DHT22;34807;51.456;7.244;2022-12-16T14:56:18;-1.10;91.50
48998;DHT22;34807;51.456;7.244;2022-12-16T14:59:06;-1.10;91.50
48998;DHT22;34807;51.456;7.244;2022-12-16T15:01:51;-1.10;91.50
48998;DHT22;34807;51.456;7.244;2022-12-16T15:04:38;-1.10;91.50
48998;DHT22;34807;51.456;7.244;2022-12-16T15:07:22;-1.10;91.50
48998;DHT22;34807;51.456;7.244;2022-12-16T15:10:10;-1.10;91.60
48998;DHT22;34807;51.456;7.244;2022-12-16T15:12:55;-1.10;91.90
48998;DHT22;34807;51.456;7.244;2022-12-16T15:15:44;-1.00;91.80
48998;DHT22;34807;51.456;7.244;2022-12-16T15:18:31;-1.10;91.80
48998;DHT22;34807;51.456;7.244;2022-12-16T15:21:15;-1.10;91.90
48998;DHT22;34807;51.456;7.244;2022-12-16T15:23:59;-1.10;91.90
48998;DHT22;34807;51.456;7.244;2022-12-16T15:26:43;-1.20;92.00
48998;DHT22;34807;51.456;7.244;2022-12-16T15:35:09;-1.20;92.10
48998;DHT22;34807;51.456;7.244;2022-12-16T15:37:53;-1.20;92.10
48998;DHT22;34807;51.456;7.244;2022-12-16T15:40:38;-1.30;92.10
48998;DHT22;34807;51.456;7.244;2022-12-16T15:43:29;-1.20;92.20
48998;DHT22;34807;51.456;7.244;2022-12-16T15:49:01;-1.30;92.20
48998;DHT22;34807;51.456;7.244;2022-12-16T15:51:45;-1.30;92.20
48998;DHT22;34807;51.456;7.244;2022-12-16T15:54:30;-1.30;92.20
48998;DHT22;34807;51.456;7.244;2022-12-16T16:00:16;-1.30;92.30
48998;DHT22;34807;51.456;7.244;2022-12-16T16:03:00;-1.30;92.30
48998;DHT22;34807;51.456;7.244;2022-12-16T16:05:44;-1.40;92.30
48998;DHT22;34807;51.456;7.244;2022-12-16T16:08:28;-1.40;92.30
48998;DHT22;34807;51.456;7.244;2022-12-16T16:11:13;-1.40;92.30
48998;DHT22;34807;51.456;7.244;2022-12-16T16:13:57;-1.40;92.30
48998;DHT22;34807;51.456;7.244;2022-12-16T16:16:41;-1.40;92.40
48998;DHT22;34807;51.456;7.244;2022-12-16T16:19:25;-1.40;92.30
48998;DHT22;34807;51.456;7.244;2022-12-16T16:22:10;-1.40;92.40
48998;DHT22;34807;51.456;7.244;2022-12-16T16:24:54;-1.40;92.40
48998;DHT22;34807;51.456;7.244;2022-12-16T16:27:39;-1.40;92.40
48998;DHT22;34807;51.456;7.244;2022-12-16T16:30:23;-1.40;92.40
48998;DHT22;34807;51.456;7.244;2022-12-16T16:33:07;-1.40;92.40
48998;DHT22;34807;51.456;7.244;2022-12-16T16:35:51;-1.40;92.50
48998;DHT22;34807;51.456;7.244;2022-12-16T16:38:35;-1.50;92.40
48998;DHT22;34807;51.456;7.244;2022-12-16T16:41:20;-1.50;92.50
48998;DHT22;34807;51.456;7.244;2022-12-16T16:44:04;-1.50;92.40
48998;DHT22;34807;51.456;7.244;2022-12-16T16:46:48;-1.50;92.50
48998;DHT22;34807;51.456;7.244;2022-12-16T16:49:33;-1.50;92.50
48998;DHT22;34807;51.456;7.244;2022-12-16T16:52:19;-1.50;92.50
48998;DHT22;34807;51.456;7.244;2022-12-16T16:55:03;-1.50;92.50
48998;DHT22;34807;51.456;7.244;2022-12-16T16:57:48;-1.50;92.50
48998;DHT22;34807;51.456;7.244;2022-12-16T17:00:32;-1.50;92.50
48998;DHT22;34807;51.456;7.244;2022-12-16T17:03:16;-1.50;92.50
48998;DHT22;34807;51.456;7.244;2022-12-16T17:06:00;-1.50;92.50
48998;DHT22;34807;51.456;7.244;2022-12-16T17:08:45;-1.50;92.50
48998;DHT22;34807;51.456;7.244;2022-12-16T17:11:29;-1.50;92.50
48998;DHT22;34807;51.456;7.244;2022-12-16T17:14:15;-1.50;92.60
48998;DHT22;34807;51.456;7.244;2022-12-16T17:16:59;-1.50;92.60
48998;DHT22;34807;51.456;7.244;2022-12-16T17:19:43;-1.60;92.60
48998;DHT22;34807;51.456;7.244;2022-12-16T17:22:28;-1.60;92.60
48998;DHT22;34807;51.456;7.244;2022-12-16T17:25:12;-1.60;92.60
48998;DHT22;34807;51.456;7.244;2022-12-16T17:27:56;-1.60;92.60
48998;DHT22;34807;51.456;7.244;2022-12-16T17:30:40;-1.60;92.60
48998;DHT22;34807;51.456;7.244;2022-12-16T17:33:24;-1.60;92.60
48998;DHT22;34807;51.456;7.244;2022-12-16T17:36:10;-1.60;92.60
48998;DHT22;34807;51.456;7.244;2022-12-16T17:38:54;-1.60;92.70
48998;DHT22;34807;51.456;7.244;2022-12-16T17:41:39;-1.60;92.60
48998;DHT22;34807;51.456;7.244;2022-12-16T17:44:23;-1.60;92.60
48998;DHT22;34807;51.456;7.244;2022-12-16T17:47:07;-1.60;92.60
48998;DHT22;34807;51.456;7.244;2022-12-16T17:49:51;-1.60;92.70
48998;DHT22;34807;51.456;7.244;2022-12-16T17:52:36;-1.60;92.70
48998;DHT22;34807;51.456;7.244;2022-12-16T17:55:20;-1.60;92.70
48998;DHT22;34807;51.456;7.244;2022-12-16T17:58:04;-1.60;92.70
48998;DHT22;34807;51.456;7.244;2022-12-16T18:00:49;-1.50;92.70
48998;DHT22;34807;51.456;7.244;2022-12-16T18:03:33;-1.50;92.70
48998;DHT22;34807;51.456;7.244;2022-12-16T18:06:17;-1.50;92.70
48998;DHT22;34807;51.456;7.244;2022-12-16T18:09:01;-1.50;92.70
48998;DHT22;34807;51.456;7.244;2022-12-16T18:11:45;-1.50;92.80
48998;DHT22;34807;51.456;7.244;2022-12-16T18:14:30;-1.50;92.80
48998;DHT22;34807;51.456;7.244;2022-12-16T18:17:14;-1.50;92.80
48998;DHT22;34807;51.456;7.244;2022-12-16T18:19:58;-1.40;92.90
48998;DHT22;34807;51.456;7.244;2022-12-16T18:22:42;-1.40;92.90
48998;DHT22;34807;51.456;7.244;2022-12-16T18:25:26;-1.40;92.90
48998;DHT22;34807;51.456;7.244;2022-12-16T18:28:11;-1.40;92.90
48998;DHT22;34807;51.456;7.244;2022-12-16T18:30:55;-1.40;92.90
48998;DHT22;34807;51.456;7.244;2022-12-16T18:33:39;-1.40;92.90
48998;DHT22;34807;51.456;7.244;2022-12-16T18:36:23;-1.40;92.90
48998;DHT22;34807;51.456;7.244;2022-12-16T18:39:07;-1.40;93.00
48998;DHT22;34807;51.456;7.244;2022-12-16T18:41:52;-1.40;93.00
48998;DHT22;34807;51.456;7.244;2022-12-16T18:44:36;-1.30;93.00
48998;DHT22;34807;51.456;7.244;2022-12-16T18:47:27;-1.30;93.00
48998;DHT22;34807;51.456;7.244;2022-12-16T18:50:11;-1.30;93.00
48998;DHT22;34807;51.456;7.244;2022-12-16T18:52:56;-1.30;93.00
48998;DHT22;34807;51.456;7.244;2022-12-16T18:55:40;-1.30;93.10
48998;DHT22;34807;51.456;7.244;2022-12-16T18:58:24;-1.30;93.10
48998;DHT22;34807;51.456;7.244;2022-12-16T19:01:09;-1.30;93.10
48998;DHT22;34807;51.456;7.244;2022-12-16T19:03:54;-1.20;93.20
48998;DHT22;34807;51.456;7.244;2022-12-16T19:06:38;-1.20;93.20
48998;DHT22;34807;51.456;7.244;2022-12-16T19:09:22;-1.20;93.20
48998;DHT22;34807;51.456;7.244;2022-12-16T19:12:06;-1.20;93.20